Tyndall Air Force Base
KPAM : now visible

Airfield :











YOU CAN JOIN US ON...

 
LOGIN :

Register | Disclaimer

   EN    FR    IT 

 









Legend :    VFR   Marginal VFR   IFR   Intensive IFR   Very Intensive IFR
Visi :
Ceiling :
>= 8 km
>= 3000ft
5 to 8 km
1000 to 3000 ft
1500m to 5 km
500 to 1000 ft
800 to 1500m
200 to 500 ft
< 800m
< 200 ft
Symbols :   Thunderstorms  Fog  Heavy snow  Heavy precipitations  Wind > 20 kt






- Airport Elevation : 17 ft


KPAM - Tyndall Air Force Base

CURRENT METAR :
  • 021756Z 23009KT 10SM VCTS FEW040 SCT180 32/25 A2998 RMK AO2A SLP155 T03200253 10320 20290 58008 $

EXPIRED METARs :
  • 021656Z 22009KT 10SM VCTS CLR 31/25 A2999 RMK AO2A SLP159 T03140245 $
  • 021556Z AUTO 24008KT 10SM CLR 32/25 A3000 RMK AO2 LTG DSNT E AND SW SLP162 T03170253 $

TAF TAF KPAM
Valid from the 02 at 11:00 until the 03 at 17:00 UTC


021100Z 0211/0317 27009KT 9999 FEW020 QNH2997INS
BECMG 0216/0217 26012KT 8000 -SHRA VCTS BKN020CB QNH2995INS
TEMPO 0216/0221 24012G18KT 6000 TSRA BKN015CB
BECMG 0221/0222 24012G18KT 9999 NSW SCT025 SCT130 QNH2992INS
BECMG 0303/0304 22012KT 9000 -SHRA VCTS BKN020CB QNH2996INS
BECMG 0313/0314 24012G20KT 8000 TSRA BKN015CB QNH2991INS TX32/0218Z TN25/0309Z
KZJX FIR / North America



MET'MAP, your aeronautical weather chart ! - Copyright ORBIFLY December 2007 - Disclaimer

ORBIFLY MET'MAP TEAM :

Programming & Development : Alexandra Zaïnal
Concept & original design : Baudouin d'Aumeries
Assistance for programming : Marc-Olivier Méhu
Technical & hardware support : Manuel Goepfert

Contact : metmap@orbifly.com




SOURCES & CREDITS :

   NOAA       Earth
Advisory